createdAt,value
2022-09-29T00:01:30.597Z,12.85
2022-09-29T00:03:57.955Z,13.10
2022-09-29T00:06:25.041Z,15.27
2022-09-29T00:08:54.265Z,12.07
2022-09-29T00:11:21.577Z,11.30
2022-09-29T00:13:49.347Z,10.38
2022-09-29T00:16:16.939Z,11.35
2022-09-29T00:18:44.728Z,9.77
2022-09-29T00:21:21.567Z,11.40
2022-09-29T00:23:50.507Z,11.18
2022-09-29T00:26:24.697Z,8.80
2022-09-29T00:28:55.571Z,15.30
2022-09-29T00:31:28.005Z,11.10
2022-09-29T00:33:55.680Z,11.75
2022-09-29T00:36:30.046Z,13.32
2022-09-29T00:38:58.732Z,11.73
2022-09-29T00:41:30.149Z,11.35
2022-09-29T00:43:59.697Z,18.00
2022-09-29T00:46:49.426Z,12.93
2022-09-29T00:49:28.225Z,9.45
2022-09-29T00:52:07.823Z,11.95
2022-09-29T00:54:47.935Z,12.70
2022-09-29T00:57:18.728Z,11.20
2022-09-29T00:59:59.703Z,13.23
2022-09-29T01:02:27.580Z,10.30
2022-09-29T01:04:55.845Z,13.43
2022-09-29T01:07:28.405Z,11.10
2022-09-29T01:09:57.850Z,11.05
2022-09-29T01:12:27.508Z,12.75
2022-09-29T01:14:55.333Z,12.68
2022-09-29T01:17:23.471Z,12.80
2022-09-29T01:20:13.024Z,10.68
2022-09-29T01:23:10.775Z,11.52
2022-09-29T01:26:02.363Z,15.32
2022-09-29T01:29:05.275Z,11.63
2022-09-29T01:34:32.998Z,13.38
2022-09-29T01:37:21.252Z,13.55
2022-09-29T01:40:06.858Z,12.93
2022-09-29T01:42:40.895Z,10.95
2022-09-29T01:45:29.477Z,13.05
2022-09-29T01:48:10.020Z,11.05
2022-09-29T01:50:42.112Z,11.32
2022-09-29T01:53:14.635Z,10.98
2022-09-29T01:55:50.664Z,14.20
2022-09-29T01:58:30.508Z,10.80
2022-09-29T02:01:07.030Z,13.80
2022-09-29T02:04:11.499Z,14.75
2022-09-29T02:06:52.414Z,12.20
2022-09-29T02:09:28.515Z,10.80
2022-09-29T02:11:58.852Z,11.30
2022-09-29T02:14:31.246Z,11.55
2022-09-29T02:17:07.967Z,11.55
2022-09-29T02:19:38.227Z,12.10
2022-09-29T02:22:10.638Z,15.15
2022-09-29T02:24:37.951Z,11.55
2022-09-29T02:27:07.827Z,11.30
2022-09-29T02:29:40.499Z,12.63
2022-09-29T02:32:13.265Z,12.43
2022-09-29T02:34:46.079Z,12.95
2022-09-29T02:37:13.094Z,12.90
2022-09-29T02:40:04.799Z,12.00
2022-09-29T02:42:56.879Z,13.27
2022-09-29T02:45:47.377Z,17.08
2022-09-29T02:48:43.504Z,13.15
2022-09-29T02:51:25.010Z,13.35
2022-09-29T02:54:20.531Z,12.43
2022-09-29T02:56:52.446Z,13.20
2022-09-29T02:59:27.858Z,13.90
2022-09-29T03:01:59.189Z,14.35
2022-09-29T03:04:29.110Z,23.85
2022-09-29T03:06:56.267Z,14.93
2022-09-29T03:09:23.338Z,15.57
2022-09-29T03:11:55.343Z,14.40
2022-09-29T03:14:22.543Z,14.80
2022-09-29T03:16:49.599Z,17.25
2022-09-29T03:19:17.087Z,14.43
2022-09-29T03:21:46.434Z,13.30
2022-09-29T03:24:13.777Z,15.35
2022-09-29T03:26:43.627Z,12.07
2022-09-29T03:29:16.139Z,12.40
2022-09-29T03:31:46.002Z,14.20
2022-09-29T03:34:15.314Z,12.50
2022-09-29T03:36:44.657Z,13.45
2022-09-29T03:39:14.006Z,13.50
2022-09-29T03:41:43.201Z,13.95
2022-09-29T03:44:12.547Z,14.60
2022-09-29T03:46:40.527Z,19.58
2022-09-29T03:49:12.909Z,16.50
2022-09-29T03:51:40.339Z,14.75
2022-09-29T03:54:09.738Z,15.88
2022-09-29T03:56:38.081Z,15.95
2022-09-29T03:59:08.521Z,16.75
2022-09-29T04:01:38.130Z,15.30
2022-09-29T04:06:37.995Z,16.38
2022-09-29T04:09:05.105Z,20.45
2022-09-29T04:11:32.605Z,20.73
2022-09-29T04:14:02.041Z,18.58
2022-09-29T04:16:29.209Z,20.45
2022-09-29T04:18:56.578Z,18.13
2022-09-29T04:21:26.164Z,18.83
2022-09-29T04:23:55.758Z,21.23
2022-09-29T04:26:25.675Z,17.73
2022-09-29T04:28:58.549Z,19.08
2022-09-29T04:33:57.182Z,21.83
2022-09-29T04:36:27.498Z,17.35
2022-09-29T04:38:57.135Z,17.92
2022-09-29T04:41:24.236Z,18.17
2022-09-29T04:43:56.272Z,17.23
2022-09-29T04:46:25.708Z,17.60
2022-09-29T04:48:52.754Z,17.65
2022-09-29T04:51:24.955Z,26.13
2022-09-29T04:53:56.803Z,17.45
2022-09-29T04:56:24.127Z,20.15
2022-09-29T04:58:55.499Z,17.30
2022-09-29T05:01:26.135Z,18.83
2022-09-29T05:03:53.602Z,26.88
2022-09-29T05:06:20.638Z,18.13
2022-09-29T05:08:52.455Z,15.73
2022-09-29T05:11:24.044Z,19.08
2022-09-29T05:13:51.545Z,16.42
2022-09-29T05:16:18.765Z,14.73
2022-09-29T05:18:53.554Z,15.05
2022-09-29T05:21:28.149Z,18.73
2022-09-29T05:23:58.412Z,18.08
2022-09-29T05:26:28.287Z,19.55
2022-09-29T05:28:57.511Z,18.13
2022-09-29T05:31:27.639Z,20.17
2022-09-29T05:33:58.256Z,17.95
2022-09-29T05:36:25.628Z,17.48
2022-09-29T05:38:57.126Z,22.70
2022-09-29T05:41:24.500Z,22.80
2022-09-29T05:43:53.778Z,17.75
2022-09-29T05:46:22.217Z,17.52
2022-09-29T05:48:52.313Z,24.20
2022-09-29T05:51:23.030Z,23.98
2022-09-29T05:53:51.794Z,18.98
2022-09-29T05:56:29.195Z,19.30
2022-09-29T05:58:56.970Z,19.23
2022-09-29T06:01:26.332Z,17.80
2022-09-29T06:03:54.684Z,16.58
2022-09-29T06:06:26.095Z,17.60
2022-09-29T06:08:53.682Z,22.10
2022-09-29T06:11:31.496Z,21.35
2022-09-29T06:14:00.627Z,20.27
2022-09-29T06:16:30.110Z,20.35
2022-09-29T06:19:01.556Z,20.95
2022-09-29T06:21:35.226Z,19.30
2022-09-29T06:24:02.497Z,22.25
2022-09-29T06:26:30.394Z,20.05
2022-09-29T06:29:02.023Z,17.35
2022-09-29T06:31:33.399Z,16.92
2022-09-29T06:34:07.153Z,20.15
2022-09-29T06:36:59.871Z,18.58
2022-09-29T06:39:27.564Z,19.52
2022-09-29T06:41:57.081Z,20.00
2022-09-29T06:44:30.162Z,18.70
2022-09-29T06:46:58.465Z,20.38
2022-09-29T06:49:28.254Z,20.02
2022-09-29T06:51:57.718Z,25.75
2022-09-29T06:54:27.639Z,24.67
2022-09-29T06:56:55.564Z,22.15
2022-09-29T06:59:25.312Z,19.58
2022-09-29T07:01:53.034Z,21.48
2022-09-29T07:04:23.035Z,22.67
2022-09-29T07:06:51.349Z,23.58
2022-09-29T07:09:19.638Z,23.30
2022-09-29T07:11:50.443Z,26.17
2022-09-29T07:14:22.816Z,24.27
2022-09-29T07:16:53.715Z,27.67
2022-09-29T07:19:23.588Z,30.42
2022-09-29T07:21:51.655Z,26.67
2022-09-29T07:24:21.195Z,20.42
2022-09-29T07:26:50.625Z,22.25
2022-09-29T07:29:20.320Z,26.35
2022-09-29T07:31:53.024Z,29.75
2022-09-29T07:34:22.470Z,27.58
2022-09-29T07:36:54.235Z,26.42
2022-09-29T07:39:22.653Z,30.48
2022-09-29T07:41:55.279Z,23.52
2022-09-29T07:44:28.499Z,21.27
2022-09-29T07:46:55.942Z,21.98
2022-09-29T07:49:23.121Z,24.52
2022-09-29T07:51:52.716Z,27.10
2022-09-29T07:54:25.784Z,24.58
2022-09-29T07:57:00.955Z,30.52
2022-09-29T07:59:32.811Z,24.00
2022-09-29T08:02:04.587Z,63.50
2022-09-29T08:04:32.031Z,30.77
2022-09-29T08:06:59.645Z,24.50
2022-09-29T08:09:36.919Z,23.08
2022-09-29T08:12:08.557Z,22.15
2022-09-29T08:14:44.291Z,20.55
2022-09-29T08:17:19.126Z,25.92
2022-09-29T08:19:46.591Z,20.90
2022-09-29T08:22:18.364Z,23.50
2022-09-29T08:24:45.670Z,24.30
2022-09-29T08:27:19.137Z,26.42
2022-09-29T08:29:48.757Z,22.83
2022-09-29T08:32:18.111Z,19.58
2022-09-29T08:34:52.330Z,20.13
2022-09-29T08:37:19.500Z,21.92
2022-09-29T08:39:46.607Z,21.70
2022-09-29T08:42:49.054Z,26.60
2022-09-29T08:45:29.090Z,21.77
2022-09-29T08:48:18.475Z,24.85
2022-09-29T08:51:02.242Z,17.67
2022-09-29T08:56:05.408Z,21.95
2022-09-29T08:58:33.844Z,17.95
2022-09-29T09:01:10.845Z,19.80
2022-09-29T09:03:56.477Z,17.77
2022-09-29T09:06:29.936Z,17.27
2022-09-29T09:09:24.417Z,23.80
2022-09-29T09:12:20.397Z,18.40
2022-09-29T09:14:59.736Z,19.25
2022-09-29T09:18:20.151Z,15.98
2022-09-29T09:20:50.531Z,20.67
2022-09-29T09:24:00.740Z,14.30
2022-09-29T09:26:39.940Z,15.27
2022-09-29T09:29:37.644Z,13.27
2022-09-29T09:32:10.762Z,10.02
2022-09-29T09:34:49.616Z,10.82
2022-09-29T09:37:28.460Z,14.18
2022-09-29T09:40:14.934Z,12.50
2022-09-29T09:42:47.868Z,13.57
2022-09-29T09:45:38.074Z,15.05
2022-09-29T09:48:23.091Z,12.57
2022-09-29T09:51:08.677Z,15.13
2022-09-29T09:53:44.423Z,14.30
2022-09-29T09:56:26.075Z,7.18
2022-09-29T09:59:21.377Z,9.40
2022-09-29T10:01:50.987Z,7.35
2022-09-29T10:04:18.323Z,7.03
2022-09-29T10:06:47.701Z,7.00
2022-09-29T10:09:16.265Z,7.15
2022-09-29T10:11:46.152Z,5.80
2022-09-29T10:14:26.119Z,6.30
2022-09-29T10:17:07.341Z,8.27
2022-09-29T10:19:55.327Z,5.82
2022-09-29T10:22:26.914Z,5.03
2022-09-29T10:25:15.748Z,4.13
2022-09-29T10:27:57.647Z,4.90
2022-09-29T10:30:43.412Z,6.80
2022-09-29T10:33:16.938Z,6.25
2022-09-29T10:35:46.719Z,8.27
2022-09-29T10:38:27.192Z,13.48
2022-09-29T10:41:06.980Z,5.93
2022-09-29T10:43:42.374Z,6.22
2022-09-29T10:46:29.681Z,8.80
2022-09-29T10:49:21.507Z,6.45
2022-09-29T10:52:06.514Z,6.10
2022-09-29T10:54:40.382Z,4.55
2022-09-29T10:57:16.136Z,4.03
2022-09-29T10:59:52.796Z,3.10
2022-09-29T11:02:30.587Z,3.90
2022-09-29T11:05:16.876Z,3.50
2022-09-29T11:07:46.553Z,4.68
2022-09-29T11:10:35.540Z,2.78
2022-09-29T11:13:41.038Z,3.10
2022-09-29T11:16:24.213Z,2.35
2022-09-29T11:18:57.335Z,3.35
2022-09-29T11:21:56.375Z,2.70
2022-09-29T11:24:26.394Z,2.50
2022-09-29T11:27:17.599Z,2.55
2022-09-29T11:29:53.511Z,3.13
2022-09-29T11:33:05.892Z,2.90
2022-09-29T11:36:09.859Z,6.13
2022-09-29T11:39:09.059Z,8.63
2022-09-29T11:41:53.579Z,6.70
2022-09-29T11:44:52.414Z,3.53
2022-09-29T11:47:51.796Z,5.32
2022-09-29T11:50:22.403Z,2.53
2022-09-29T11:53:38.566Z,2.20
2022-09-29T11:56:34.836Z,3.67
2022-09-29T11:59:02.073Z,2.42
2022-09-29T12:02:08.800Z,2.15
2022-09-29T12:04:51.177Z,2.78
2022-09-29T12:07:45.712Z,3.30
2022-09-29T12:10:30.018Z,1.85
2022-09-29T12:13:20.881Z,4.43
2022-09-29T12:16:10.955Z,3.05
2022-09-29T12:19:08.077Z,4.13
2022-09-29T12:21:50.555Z,5.78
2022-09-29T12:24:46.696Z,2.75
2022-09-29T12:27:21.601Z,2.67
2022-09-29T12:29:56.839Z,4.93
2022-09-29T12:33:06.502Z,2.83
2022-09-29T12:35:34.012Z,2.08
2022-09-29T12:38:17.112Z,3.30
2022-09-29T12:40:51.839Z,1.50
2022-09-29T12:43:27.655Z,1.80
2022-09-29T12:46:14.328Z,1.42
2022-09-29T12:49:28.957Z,2.47
2022-09-29T12:52:00.390Z,5.57
2022-09-29T12:54:38.364Z,5.85
2022-09-29T12:57:16.581Z,1.45
2022-09-29T13:00:00.133Z,1.98
2022-09-29T13:02:55.445Z,3.20
2022-09-29T13:05:25.257Z,1.52
2022-09-29T13:08:31.875Z,5.53
2022-09-29T13:11:11.857Z,3.05
2022-09-29T13:14:19.400Z,2.15
2022-09-29T13:16:55.482Z,1.73
2022-09-29T13:19:57.470Z,1.05
2022-09-29T13:22:53.812Z,1.90
2022-09-29T13:26:07.964Z,1.48
2022-09-29T13:28:56.593Z,3.10
2022-09-29T13:31:33.109Z,1.73
2022-09-29T13:34:03.218Z,3.92
2022-09-29T13:36:37.976Z,4.63
2022-09-29T13:39:25.855Z,2.38
2022-09-29T13:41:56.982Z,6.63
2022-09-29T13:44:31.366Z,2.60
2022-09-29T13:47:31.864Z,1.92
2022-09-29T13:50:40.308Z,3.75
2022-09-29T13:53:22.874Z,2.67
2022-09-29T13:56:05.046Z,1.42
2022-09-29T13:58:38.223Z,1.10
2022-09-29T14:01:10.325Z,2.40
2022-09-29T14:03:45.245Z,1.70
2022-09-29T14:06:39.622Z,2.17
2022-09-29T14:09:17.676Z,4.97
2022-09-29T14:11:52.835Z,6.05
2022-09-29T14:14:43.170Z,4.10
2022-09-29T14:17:18.506Z,5.40
2022-09-29T14:20:08.859Z,3.80
2022-09-29T14:22:43.542Z,3.38
2022-09-29T14:25:15.255Z,1.63
2022-09-29T14:28:01.463Z,1.60
2022-09-29T14:30:44.414Z,2.95
2022-09-29T14:33:20.673Z,2.67
2022-09-29T14:36:02.361Z,1.10
2022-09-29T14:38:32.244Z,3.90
2022-09-29T14:41:10.239Z,3.30
2022-09-29T14:43:50.820Z,3.38
2022-09-29T14:46:48.997Z,2.50
2022-09-29T14:49:49.820Z,2.17
2022-09-29T14:52:44.173Z,2.67
2022-09-29T14:55:17.582Z,3.97
2022-09-29T14:58:03.518Z,12.73
2022-09-29T15:01:13.473Z,7.38
2022-09-29T15:03:54.426Z,3.50
2022-09-29T15:06:29.287Z,3.88
2022-09-29T15:09:02.796Z,2.90
2022-09-29T15:11:37.446Z,2.97
2022-09-29T15:14:28.146Z,4.10
2022-09-29T15:17:14.832Z,5.65
2022-09-29T15:19:56.038Z,3.97
2022-09-29T15:22:41.707Z,3.20
2022-09-29T15:25:31.201Z,3.53
2022-09-29T15:28:15.224Z,8.52
2022-09-29T15:30:48.955Z,13.00
2022-09-29T15:33:30.036Z,11.32
2022-09-29T15:36:04.223Z,12.27
2022-09-29T15:38:39.852Z,13.65
2022-09-29T15:41:13.584Z,13.93
2022-09-29T15:43:59.028Z,10.50
2022-09-29T15:46:48.363Z,69.90
2022-09-29T15:49:21.295Z,11.55
2022-09-29T15:52:05.052Z,81.85
2022-09-29T15:54:39.939Z,102.60
2022-09-29T15:57:43.442Z,19.60
2022-09-29T16:00:21.771Z,24.83
2022-09-29T16:03:04.763Z,28.23
2022-09-29T16:05:40.090Z,10.88
2022-09-29T16:08:22.954Z,8.82
2022-09-29T16:10:57.367Z,8.70
2022-09-29T16:13:31.130Z,9.15
2022-09-29T16:16:05.325Z,5.22
2022-09-29T16:18:43.462Z,7.35
2022-09-29T16:21:17.385Z,24.42
2022-09-29T16:23:48.795Z,35.22
2022-09-29T16:26:36.574Z,23.98
2022-09-29T16:29:30.544Z,11.68
2022-09-29T16:32:04.458Z,20.55
2022-09-29T16:34:34.592Z,13.57
2022-09-29T16:37:05.085Z,16.55
2022-09-29T16:39:40.372Z,13.45
2022-09-29T16:42:26.476Z,9.02
2022-09-29T16:44:56.006Z,8.40
2022-09-29T16:47:34.573Z,14.15
2022-09-29T16:50:14.371Z,15.13
2022-09-29T16:52:47.242Z,17.33
2022-09-29T16:55:27.923Z,18.60
2022-09-29T16:57:55.443Z,24.33
2022-09-29T17:00:28.628Z,21.55
2022-09-29T17:02:57.955Z,11.45
2022-09-29T17:05:26.427Z,11.13
2022-09-29T17:08:02.365Z,8.23
2022-09-29T17:10:30.680Z,75.78
2022-09-29T17:13:01.402Z,17.50
2022-09-29T17:15:31.689Z,14.02
2022-09-29T17:18:03.910Z,9.23
2022-09-29T17:20:31.297Z,9.32
2022-09-29T17:23:01.230Z,13.23
2022-09-29T17:25:29.027Z,14.80
2022-09-29T17:28:15.038Z,20.23
2022-09-29T17:30:47.765Z,20.73
2022-09-29T17:33:19.798Z,26.10
2022-09-29T17:35:55.148Z,15.77
2022-09-29T17:38:23.868Z,13.65
2022-09-29T17:41:03.633Z,20.85
2022-09-29T17:43:33.539Z,18.20
2022-09-29T17:46:05.725Z,13.52
2022-09-29T17:48:35.921Z,15.70
2022-09-29T17:51:03.993Z,18.23
2022-09-29T17:53:31.056Z,19.40
2022-09-29T17:56:03.271Z,16.80
2022-09-29T17:58:32.940Z,18.67
2022-09-29T18:01:05.310Z,21.65
2022-09-29T18:03:39.701Z,20.05
2022-09-29T18:06:07.407Z,23.88
2022-09-29T18:08:34.853Z,29.17
2022-09-29T18:11:06.704Z,24.85
2022-09-29T18:13:40.915Z,25.63
2022-09-29T18:16:18.505Z,24.17
2022-09-29T18:18:46.126Z,33.05
2022-09-29T18:21:13.821Z,24.35
2022-09-29T18:23:43.115Z,19.98
2022-09-29T18:26:16.380Z,27.58
2022-09-29T18:28:48.928Z,26.88
2022-09-29T18:31:23.441Z,29.75
2022-09-29T18:33:53.445Z,51.65
2022-09-29T18:36:23.286Z,34.88
2022-09-29T18:38:53.113Z,39.10
2022-09-29T18:41:24.682Z,41.47
2022-09-29T18:43:56.236Z,38.25
2022-09-29T18:46:30.080Z,36.50
2022-09-29T18:48:57.492Z,38.25
2022-09-29T18:51:24.968Z,41.58
2022-09-29T18:53:53.111Z,39.78
2022-09-29T18:56:25.113Z,34.85
2022-09-29T18:58:52.417Z,35.42
2022-09-29T19:01:30.027Z,59.25
2022-09-29T19:03:59.797Z,33.53
2022-09-29T19:06:26.995Z,46.75
2022-09-29T19:08:56.418Z,34.97
2022-09-29T19:11:28.740Z,32.30
2022-09-29T19:13:58.863Z,34.83
2022-09-29T19:16:28.137Z,37.17
2022-09-29T19:18:55.738Z,35.60
2022-09-29T19:21:25.412Z,29.20
2022-09-29T19:23:52.938Z,46.85
2022-09-29T19:26:22.565Z,34.78
2022-09-29T19:28:50.054Z,30.33
2022-09-29T19:31:22.415Z,39.38
2022-09-29T19:33:55.455Z,33.13
2022-09-29T19:36:25.191Z,39.40
2022-09-29T19:38:52.548Z,41.17
2022-09-29T19:41:24.041Z,34.00
2022-09-29T19:43:52.126Z,29.98
2022-09-29T19:46:20.909Z,29.73
2022-09-29T19:48:49.116Z,33.30
2022-09-29T19:51:36.008Z,29.40
2022-09-29T19:54:20.319Z,30.52
2022-09-29T19:56:55.093Z,35.53
2022-09-29T19:59:28.972Z,26.15
2022-09-29T20:01:57.763Z,27.08
2022-09-29T20:04:30.773Z,31.10
2022-09-29T20:07:01.283Z,31.90
2022-09-29T20:09:29.205Z,33.53
2022-09-29T20:11:56.341Z,33.00
2022-09-29T20:14:25.380Z,34.97
2022-09-29T20:16:54.888Z,28.17
2022-09-29T20:19:24.527Z,36.55
2022-09-29T20:21:57.510Z,37.35
2022-09-29T20:24:29.409Z,41.15
2022-09-29T20:26:59.446Z,103.95
2022-09-29T20:29:30.671Z,37.35
2022-09-29T20:31:58.046Z,37.33
2022-09-29T20:34:25.280Z,51.17
2022-09-29T20:36:54.963Z,32.63
2022-09-29T20:39:25.418Z,30.63
2022-09-29T20:41:54.413Z,29.55
2022-09-29T20:44:25.430Z,38.42
2022-09-29T20:46:54.599Z,29.05
2022-09-29T20:49:27.546Z,30.30
2022-09-29T20:51:56.475Z,35.20
2022-09-29T20:54:26.171Z,33.75
2022-09-29T20:56:53.821Z,32.30
2022-09-29T20:59:23.212Z,34.65
2022-09-29T21:01:54.263Z,37.20
2022-09-29T21:04:22.836Z,33.40
2022-09-29T21:06:52.302Z,44.38
2022-09-29T21:09:26.559Z,39.00
2022-09-29T21:11:57.021Z,33.53
2022-09-29T21:14:30.031Z,32.75
2022-09-29T21:16:58.543Z,36.17
2022-09-29T21:19:28.622Z,34.47
2022-09-29T21:21:56.169Z,32.67
2022-09-29T21:24:24.500Z,38.70
2022-09-29T21:26:52.178Z,42.65
2022-09-29T21:29:22.089Z,42.63
2022-09-29T21:31:50.656Z,47.63
2022-09-29T21:34:22.701Z,43.08
2022-09-29T21:36:54.532Z,40.95
2022-09-29T21:39:21.936Z,36.90
2022-09-29T21:41:49.251Z,37.72
2022-09-29T21:44:23.253Z,43.60
2022-09-29T21:46:50.717Z,43.05
2022-09-29T21:49:22.813Z,48.47
2022-09-29T21:51:50.954Z,38.88
2022-09-29T21:54:23.589Z,40.42
2022-09-29T21:56:54.151Z,44.08
2022-09-29T21:59:22.971Z,40.92
2022-09-29T22:01:53.050Z,41.95
2022-09-29T22:04:21.051Z,40.22
2022-09-29T22:06:49.129Z,43.38
2022-09-29T22:09:19.515Z,40.60
2022-09-29T22:11:50.604Z,42.50
2022-09-29T22:14:24.425Z,42.05
2022-09-29T22:16:59.054Z,40.72
2022-09-29T22:19:26.278Z,38.30
2022-09-29T22:21:56.505Z,40.15
2022-09-29T22:24:24.562Z,44.05
2022-09-29T22:26:56.720Z,36.70
2022-09-29T22:29:24.425Z,34.17
2022-09-29T22:31:52.201Z,46.63
2022-09-29T22:34:19.462Z,41.08
2022-09-29T22:36:46.596Z,40.80
2022-09-29T22:39:16.484Z,39.65
2022-09-29T22:41:50.203Z,37.35
2022-09-29T22:44:19.957Z,35.58
2022-09-29T22:46:47.396Z,35.08
2022-09-29T22:49:19.190Z,37.85
2022-09-29T22:51:48.991Z,39.17
2022-09-29T22:54:16.232Z,39.15
2022-09-29T22:56:44.118Z,35.72
2022-09-29T22:59:13.194Z,37.58
2022-09-29T23:01:45.003Z,38.40
2022-09-29T23:04:15.030Z,36.65
2022-09-29T23:06:44.761Z,38.03
2022-09-29T23:09:12.024Z,35.95
2022-09-29T23:11:39.339Z,36.85
2022-09-29T23:14:07.167Z,36.70
2022-09-29T23:16:36.523Z,32.90
2022-09-29T23:19:04.558Z,35.17
2022-09-29T23:21:34.006Z,32.10
2022-09-29T23:24:06.896Z,33.15
2022-09-29T23:26:34.333Z,35.85
2022-09-29T23:29:03.514Z,28.15
2022-09-29T23:31:33.422Z,38.67
2022-09-29T23:34:01.310Z,32.97
2022-09-29T23:36:34.150Z,38.10
2022-09-29T23:39:11.323Z,36.75
2022-09-29T23:41:43.449Z,33.63
2022-09-29T23:44:15.915Z,31.15
2022-09-29T23:46:45.311Z,36.95
2022-09-29T23:49:15.930Z,32.40
2022-09-29T23:51:47.020Z,27.45
2022-09-29T23:54:18.814Z,37.22
2022-09-29T23:56:48.350Z,31.83
2022-09-29T23:59:18.492Z,34.25
